메인 페이지
METAR-TAF:

METAR-TAF

공항 :

오션사이드 / Camp Pendleton, 캘리포니아, 미국

위도: 33-18-17N, 경도: 117-21-14W, 고도: 23m

현재 날씨관측

예보는 1 시간 0분 전, 19:55시(UTC)에 발표되었습니다.
남서8kt, 순간 최대 풍속 17kt남남서풍과 풍을 오가는
온도 23°C
습도 57%
기압 1015 hPa
시정: 16.1km
고도 1000ft 상공 구름 조금

METAR: KNFG 131955Z 23008G17KT 200V260 10SM FEW010 23/14 A2998 RMK AO2 SLP153 T02330144 $

시각: 13:55 (20:55 UTC)

예보

예보 대상 시간: 13일 15시부터 14일 15시까지 (UTC)
여러 방향의 바람 4kt
시정 10km 이상
고도 800ft 상공 흐림
13일 1600시부터 (UTC)
여러 방향의 바람 4kt
시정 10km 이상
고도 1000ft 상공 흐림
전환 중
13일 18시부터 13일 20시까지 (UTC)
서남서7kt
시정 10km 이상
고도 1000ft 상공 구름 조금
전환 중
14일 03시부터 14일 05시까지 (UTC)
여러 방향의 바람 4kt
시정 10km 이상
고도 1000ft 상공 구름 많음
14일 0730시부터 (UTC)
여러 방향의 바람 4kt
시정 10km 이상
고도 500ft 상공 흐림
전환 중
13일 13시부터 13일 15시까지 (UTC)
고도 1000ft 상공 흐림

TAF: KNFG 1315/1415 VRB04KT 9999 OVC008 QNH2998INS FM131600 VRB04KT 9999 OVC010 QNH2997INS BECMG 1318/1320 24007KT 9999 FEW010 QNH2995INS BECMG 1403/1405 VRB04KT 9999 BKN010 QNH2997INS FM140730 VRB04KT 9999 OVC005 QNH2995INS BECMG 1313/1315 OVC010 QN2995HINS T24/1320Z T16/1408Z

4,000개 이상의 공항 관측 자료 및 예보 (METAR 및 TAF 보고).

지도상에서 검색 가능한 기상관측소가 노란 점과 빨간 점으로 표시되어 있습니다.

기상관측소 명을 보려면 표시 위로 마우스를 이동하세요.

날씨 관측과 예보를 보려면 클릭하세요.

지도 변경 : 확대하려면 엑스 표시가 있는 녹색 버튼, 축소하려면 빼기 표시가 있는 녹색 버튼, 다음 페이지의 지도를 보려면 녹색 화살표를 클릭하세요.


METAR-TAF: